createdAt,value
2023-05-04T00:01:31.411Z,99893.78
2023-05-04T00:03:58.185Z,99905.59
2023-05-04T00:06:24.958Z,99903.41
2023-05-04T00:08:52.538Z,99910.72
2023-05-04T00:11:19.226Z,99912.38
2023-05-04T00:13:55.236Z,99911.84
2023-05-04T00:16:22.127Z,99914.69
2023-05-04T00:18:48.881Z,99909.97
2023-05-04T00:21:18.092Z,99913.16
2023-05-04T00:23:46.796Z,99906.31
2023-05-04T00:26:13.278Z,99901.81
2023-05-04T00:28:39.986Z,99901.00
2023-05-04T00:31:06.648Z,99896.34
2023-05-04T00:33:33.329Z,99881.34
2023-05-04T00:36:00.292Z,99881.88
2023-05-04T00:38:26.721Z,99881.47
2023-05-04T00:40:54.085Z,99866.34
2023-05-04T00:43:20.767Z,99863.81
2023-05-04T00:45:48.179Z,99863.81
2023-05-04T00:48:15.537Z,99849.84
2023-05-04T00:50:42.234Z,99846.50
2023-05-04T00:53:10.600Z,99843.81
2023-05-04T00:55:40.976Z,99832.88
2023-05-04T00:58:14.467Z,99819.63
2023-05-04T01:00:41.135Z,99805.28
2023-05-04T01:03:10.154Z,99803.00
2023-05-04T01:05:44.901Z,99795.09
2023-05-04T01:08:18.974Z,99791.91
2023-05-04T01:10:52.361Z,99791.78
2023-05-04T01:13:21.882Z,99826.66
2023-05-04T01:15:50.204Z,99839.25
2023-05-04T01:18:17.312Z,99861.31
2023-05-04T01:20:44.322Z,99875.09
2023-05-04T01:23:11.722Z,99891.06
2023-05-04T01:25:48.533Z,99892.41
2023-05-04T01:28:44.961Z,99894.56
2023-05-04T01:31:17.645Z,99893.81
2023-05-04T01:33:45.270Z,99909.69
2023-05-04T01:36:11.882Z,99912.28
2023-05-04T01:38:39.769Z,99926.88
2023-05-04T01:41:06.318Z,99938.22
2023-05-04T01:43:33.130Z,99941.84
2023-05-04T01:45:59.662Z,99940.50
2023-05-04T01:48:28.723Z,99943.44
2023-05-04T01:50:55.344Z,99931.44
2023-05-04T01:53:21.868Z,99938.59
2023-05-04T01:55:48.851Z,99941.69
2023-05-04T01:58:15.283Z,99947.63
2023-05-04T02:00:41.794Z,99951.78
2023-05-04T02:03:08.645Z,99963.47
2023-05-04T02:05:35.316Z,99982.13
2023-05-04T02:08:01.926Z,99997.66
2023-05-04T02:10:30.648Z,100013.88
2023-05-04T02:12:57.969Z,100030.81
2023-05-04T02:15:24.490Z,100029.72
2023-05-04T02:17:50.922Z,100036.44
2023-05-04T02:20:17.850Z,100041.75
2023-05-04T02:22:46.204Z,100051.84
2023-05-04T02:25:13.861Z,100051.66
2023-05-04T02:27:40.405Z,100055.16
2023-05-04T02:30:08.042Z,100059.66
2023-05-04T02:32:34.697Z,100060.09
2023-05-04T02:35:01.766Z,100057.03
2023-05-04T02:37:28.638Z,100063.59
2023-05-04T02:39:55.456Z,100071.69
2023-05-04T02:42:22.052Z,100080.69
2023-05-04T02:44:48.637Z,100089.63
2023-05-04T02:47:15.982Z,100107.25
2023-05-04T02:49:42.483Z,100124.31
2023-05-04T02:52:10.222Z,100135.06
2023-05-04T02:54:36.729Z,100154.50
2023-05-04T02:57:03.863Z,100154.50
2023-05-04T02:59:30.449Z,100166.25
2023-05-04T03:01:57.095Z,100151.69
2023-05-04T03:04:23.965Z,100143.84
2023-05-04T03:06:50.404Z,100145.00
2023-05-04T03:09:16.853Z,100143.56
2023-05-04T03:11:44.912Z,100135.88
2023-05-04T03:14:11.796Z,100134.09
2023-05-04T03:16:38.318Z,100128.19
2023-05-04T03:19:04.969Z,100119.56
2023-05-04T03:21:32.652Z,100119.84
2023-05-04T03:23:59.432Z,100133.22
2023-05-04T03:26:26.096Z,100137.59
2023-05-04T03:28:52.857Z,100141.06
2023-05-04T03:31:19.397Z,100141.34
2023-05-04T03:33:48.303Z,100141.34
2023-05-04T03:36:14.907Z,100139.97
2023-05-04T03:38:41.390Z,100137.59
2023-05-04T03:41:08.245Z,100143.56
2023-05-04T03:43:35.132Z,100143.56
2023-05-04T03:46:01.757Z,100138.97
2023-05-04T03:48:28.594Z,100145.53
2023-05-04T03:50:55.512Z,100142.19
2023-05-04T03:53:22.069Z,100137.25
2023-05-04T03:55:49.010Z,100143.84
2023-05-04T03:58:15.382Z,100144.81
2023-05-04T04:00:43.005Z,100150.25
2023-05-04T04:03:09.785Z,100152.91
2023-05-04T04:05:36.575Z,100157.81
2023-05-04T04:08:03.755Z,100150.53
2023-05-04T04:10:31.172Z,100148.75
2023-05-04T04:12:57.842Z,100157.38
2023-05-04T04:15:24.505Z,100160.88
2023-05-04T04:17:51.208Z,100170.13
2023-05-04T04:20:18.191Z,100185.09
2023-05-04T04:22:44.689Z,100208.72
2023-05-04T04:25:11.603Z,100202.69
2023-05-04T04:27:38.132Z,100199.88
2023-05-04T04:30:05.550Z,100180.06
2023-05-04T04:32:32.316Z,100159.22
2023-05-04T04:34:59.045Z,100144.00
2023-05-04T04:37:25.613Z,100139.09
2023-05-04T04:39:52.794Z,100137.44
2023-05-04T04:42:19.784Z,100125.44
2023-05-04T04:44:47.013Z,100138.53
2023-05-04T04:47:13.795Z,100152.53
2023-05-04T04:49:40.403Z,100154.47
2023-05-04T04:52:06.905Z,100161.06
2023-05-04T04:54:33.481Z,100147.66
2023-05-04T04:57:01.957Z,100149.03
2023-05-04T04:59:28.506Z,100113.88
2023-05-04T05:01:55.091Z,100048.06
2023-05-04T05:04:21.830Z,99959.47
2023-05-04T05:06:48.684Z,99846.38
2023-05-04T05:09:15.988Z,99818.84
2023-05-04T05:11:43.503Z,99738.34
2023-05-04T05:14:10.110Z,99716.03
2023-05-04T05:16:37.095Z,99745.69
2023-05-04T05:19:03.971Z,99647.22
2023-05-04T05:21:30.853Z,99585.00
2023-05-04T05:23:57.754Z,99509.16
2023-05-04T05:26:24.673Z,99474.16
2023-05-04T05:28:51.296Z,99448.38
2023-05-04T05:31:17.959Z,99389.31
2023-05-04T05:33:44.625Z,99396.34
2023-05-04T05:36:11.226Z,99337.53
2023-05-04T05:38:38.247Z,99298.06
2023-05-04T05:41:05.231Z,99250.06
2023-05-04T05:43:31.745Z,99226.25
2023-05-04T05:45:58.798Z,99193.16
2023-05-04T05:48:25.282Z,99180.56
2023-05-04T05:50:52.126Z,99153.81
2023-05-04T05:53:18.571Z,99154.09
2023-05-04T05:55:46.715Z,99155.84
2023-05-04T05:58:13.632Z,99163.97
2023-05-04T06:00:40.212Z,99170.88
2023-05-04T06:03:08.971Z,99192.66
2023-05-04T06:05:37.926Z,99154.94
2023-05-04T06:08:05.943Z,99162.59
2023-05-04T06:10:32.513Z,99163.75
2023-05-04T06:12:59.454Z,99160.72
2023-05-04T06:15:28.193Z,99144.94
2023-05-04T06:17:57.842Z,99125.66
2023-05-04T06:20:24.807Z,99117.88
2023-05-04T06:22:51.339Z,99125.38
2023-05-04T06:25:17.840Z,99125.00
2023-05-04T06:27:44.831Z,99130.53
2023-05-04T06:30:12.155Z,99127.19
2023-05-04T06:32:38.897Z,99120.34
2023-05-04T06:35:06.995Z,99116.13
2023-05-04T06:37:33.854Z,99113.47
2023-05-04T06:40:01.588Z,99120.56
2023-05-04T06:42:31.397Z,99113.09
2023-05-04T06:44:58.197Z,99109.56
2023-05-04T06:47:25.001Z,99117.44
2023-05-04T06:49:52.024Z,99114.13
2023-05-04T06:52:18.664Z,99109.91
2023-05-04T06:54:45.142Z,99111.38
2023-05-04T06:57:12.200Z,99111.47
2023-05-04T06:59:38.964Z,99120.00
2023-05-04T07:02:05.417Z,99120.94
2023-05-04T07:04:32.178Z,99118.28
2023-05-04T07:06:59.810Z,99128.13
2023-05-04T07:09:26.509Z,99137.63
2023-05-04T07:11:53.410Z,99140.50
2023-05-04T07:14:20.956Z,99135.47
2023-05-04T07:16:47.560Z,99140.78
2023-05-04T07:19:14.249Z,99136.09
2023-05-04T07:21:41.696Z,99146.19
2023-05-04T07:24:08.255Z,99143.22
2023-05-04T07:26:36.004Z,99141.81
2023-05-04T07:29:02.611Z,99138.00
2023-05-04T07:31:30.568Z,99134.59
2023-05-04T07:33:57.942Z,99136.91
2023-05-04T07:36:24.792Z,99123.75
2023-05-04T07:38:51.414Z,99123.06
2023-05-04T07:41:17.959Z,99118.22
2023-05-04T07:43:44.729Z,99114.09
2023-05-04T07:46:11.362Z,99107.88
2023-05-04T07:48:38.160Z,99103.59
2023-05-04T07:51:04.770Z,99099.59
2023-05-04T07:53:31.549Z,99097.34
2023-05-04T07:55:58.198Z,99099.22
2023-05-04T07:58:25.043Z,99100.53
2023-05-04T08:00:52.034Z,99104.16
2023-05-04T08:03:20.880Z,99098.53
2023-05-04T08:05:47.514Z,99102.06
2023-05-04T08:08:14.380Z,99099.13
2023-05-04T08:10:41.276Z,99103.00
2023-05-04T08:13:08.178Z,99107.69
2023-05-04T08:15:35.498Z,99100.31
2023-05-04T08:18:02.396Z,99097.59
2023-05-04T08:20:29.362Z,99093.72
2023-05-04T08:22:56.428Z,99090.00
2023-05-04T08:25:23.245Z,99083.47
2023-05-04T08:27:50.035Z,99083.31
2023-05-04T08:30:17.001Z,99084.81
2023-05-04T08:32:46.217Z,99084.78
2023-05-04T08:35:13.403Z,99075.56
2023-05-04T08:37:40.652Z,99071.56
2023-05-04T08:40:08.791Z,99080.22
2023-05-04T08:42:35.700Z,99072.50
2023-05-04T08:45:03.237Z,99076.97
2023-05-04T08:47:29.941Z,99079.13
2023-05-04T08:49:56.983Z,99073.09
2023-05-04T08:52:25.088Z,99071.75
2023-05-04T08:54:53.748Z,99078.41
2023-05-04T08:57:25.479Z,99070.53
2023-05-04T08:59:54.272Z,99070.25
2023-05-04T09:02:23.057Z,99071.06
2023-05-04T09:04:51.221Z,99067.03
2023-05-04T09:07:22.056Z,99062.84
2023-05-04T09:09:48.915Z,99066.31
2023-05-04T09:12:17.421Z,99070.19
2023-05-04T09:14:44.576Z,99062.81
2023-05-04T09:17:16.673Z,99048.88
2023-05-04T09:19:44.396Z,99062.03
2023-05-04T09:22:15.810Z,99055.88
2023-05-04T09:24:42.611Z,99061.63
2023-05-04T09:27:13.804Z,99062.13
2023-05-04T09:29:41.997Z,99055.00
2023-05-04T09:32:13.162Z,99052.00
2023-05-04T09:34:52.980Z,99052.84
2023-05-04T09:37:20.788Z,99047.75
2023-05-04T09:39:59.401Z,99047.81
2023-05-04T09:42:27.082Z,99052.38
2023-05-04T09:45:04.607Z,99042.50
2023-05-04T09:47:40.043Z,99043.78
2023-05-04T09:50:22.489Z,99042.72
2023-05-04T09:52:50.400Z,99039.78
2023-05-04T09:55:22.905Z,99040.56
2023-05-04T09:57:50.089Z,99034.69
2023-05-04T10:00:17.840Z,99040.78
2023-05-04T10:02:46.078Z,99035.84
2023-05-04T10:05:17.433Z,99024.31
2023-05-04T10:07:47.532Z,99027.22
2023-05-04T10:10:16.380Z,99027.06
2023-05-04T10:12:44.911Z,99029.41
2023-05-04T10:15:13.103Z,99024.50
2023-05-04T10:18:10.109Z,99028.97
2023-05-04T10:20:46.447Z,99014.31
2023-05-04T10:23:43.553Z,99024.66
2023-05-04T10:26:48.248Z,99019.34
2023-05-04T10:29:23.743Z,99021.78
2023-05-04T10:31:53.640Z,99014.53
2023-05-04T10:34:34.620Z,99004.81
2023-05-04T10:37:02.513Z,99010.03
2023-05-04T10:39:33.934Z,99013.63
2023-05-04T10:42:05.112Z,99006.78
2023-05-04T10:44:34.735Z,99005.13
2023-05-04T10:47:08.088Z,99002.13
2023-05-04T10:49:38.237Z,98999.09
2023-05-04T10:52:22.795Z,98990.19
2023-05-04T10:54:59.389Z,98985.09
2023-05-04T10:57:27.776Z,98982.31
2023-05-04T10:59:56.444Z,98980.75
2023-05-04T11:02:25.982Z,98971.19
2023-05-04T11:05:03.884Z,98974.22
2023-05-04T11:07:40.443Z,98970.38
2023-05-04T11:10:20.292Z,98969.59
2023-05-04T11:12:47.466Z,98968.47
2023-05-04T11:15:14.762Z,98972.31
2023-05-04T11:17:53.417Z,98967.69
2023-05-04T11:20:22.198Z,98967.72
2023-05-04T11:22:49.482Z,98963.31
2023-05-04T11:25:16.710Z,98968.22
2023-05-04T11:27:44.236Z,98958.66
2023-05-04T11:30:14.436Z,98961.44
2023-05-04T11:32:45.320Z,98958.38
2023-05-04T11:35:20.470Z,98952.63
2023-05-04T11:37:48.956Z,98949.72
2023-05-04T11:40:20.295Z,98955.66
2023-05-04T11:42:47.697Z,98941.47
2023-05-04T11:45:19.695Z,98943.28
2023-05-04T11:47:49.071Z,98939.75
2023-05-04T11:50:20.476Z,98943.16
2023-05-04T11:52:47.990Z,98929.38
2023-05-04T11:55:28.627Z,98927.81
2023-05-04T11:58:03.621Z,98928.34
2023-05-04T12:00:46.248Z,98916.13
2023-05-04T12:03:15.410Z,98925.41
2023-05-04T12:05:51.195Z,98930.78
2023-05-04T12:08:27.019Z,98921.06
2023-05-04T12:11:23.570Z,98916.84
2023-05-04T12:14:13.142Z,98903.84
2023-05-04T12:16:40.217Z,98907.16
2023-05-04T12:19:11.738Z,98907.69
2023-05-04T12:21:50.161Z,98899.50
2023-05-04T12:24:16.807Z,98908.84
2023-05-04T12:26:43.486Z,98904.47
2023-05-04T12:29:15.880Z,98899.13
2023-05-04T12:31:46.005Z,98907.91
2023-05-04T12:34:14.171Z,98906.94
2023-05-04T12:36:41.599Z,98902.00
2023-05-04T12:39:08.637Z,98898.06
2023-05-04T12:41:35.336Z,98902.34
2023-05-04T12:44:02.249Z,98894.34
2023-05-04T12:46:28.963Z,98895.25
2023-05-04T12:48:55.652Z,98896.56
2023-05-04T12:51:22.485Z,98885.09
2023-05-04T12:53:49.323Z,98887.41
2023-05-04T12:56:16.025Z,98880.81
2023-05-04T12:58:43.039Z,98881.03
2023-05-04T13:01:09.931Z,98885.09
2023-05-04T13:03:36.910Z,98877.13
2023-05-04T13:06:03.761Z,98871.59
2023-05-04T13:08:30.361Z,98865.59
2023-05-04T13:10:56.955Z,98867.41
2023-05-04T13:13:23.936Z,98855.56
2023-05-04T13:15:51.388Z,98858.34
2023-05-04T13:18:18.098Z,98855.31
2023-05-04T13:20:44.694Z,98854.00
2023-05-04T13:23:11.437Z,98843.94
2023-05-04T13:25:38.066Z,98845.00
2023-05-04T13:28:05.021Z,98829.22
2023-05-04T13:30:31.714Z,98829.56
2023-05-04T13:32:58.664Z,98828.28
2023-05-04T13:35:26.996Z,98824.25
2023-05-04T13:37:55.343Z,98823.91
2023-05-04T13:40:22.197Z,98820.50
2023-05-04T13:42:48.957Z,98815.03
2023-05-04T13:45:20.006Z,98807.75
2023-05-04T13:47:46.852Z,98798.59
2023-05-04T13:50:13.923Z,98804.41
2023-05-04T13:52:40.851Z,98794.28
2023-05-04T13:55:09.629Z,98793.09
2023-05-04T13:57:37.858Z,98794.16
2023-05-04T14:00:08.780Z,98790.47
2023-05-04T14:02:35.901Z,98785.25
2023-05-04T14:05:04.382Z,98768.75
2023-05-04T14:07:31.539Z,98760.88
2023-05-04T14:10:02.223Z,98770.00
2023-05-04T14:12:29.165Z,98766.16
2023-05-04T14:14:57.198Z,98760.50
2023-05-04T14:17:23.867Z,98755.28
2023-05-04T14:19:50.700Z,98750.25
2023-05-04T14:22:19.810Z,98730.31
2023-05-04T14:24:46.774Z,98732.22
2023-05-04T14:27:13.786Z,98743.47
2023-05-04T14:29:40.604Z,98745.94
2023-05-04T14:32:07.298Z,98737.63
2023-05-04T14:34:34.041Z,98741.41
2023-05-04T14:37:00.611Z,98738.00
2023-05-04T14:39:27.168Z,98739.22
2023-05-04T14:41:55.852Z,98729.44
2023-05-04T14:44:22.601Z,98730.81
2023-05-04T14:46:49.328Z,98736.56
2023-05-04T14:49:28.393Z,98726.66
2023-05-04T14:52:02.801Z,98720.25
2023-05-04T14:54:31.010Z,98722.69
2023-05-04T14:56:57.704Z,98726.16
2023-05-04T14:59:27.159Z,98716.72
2023-05-04T15:01:53.674Z,98710.16
2023-05-04T15:04:20.245Z,98714.25
2023-05-04T15:06:50.789Z,98710.50
2023-05-04T15:09:17.365Z,98701.03
2023-05-04T15:11:43.939Z,98702.28
2023-05-04T15:14:10.613Z,98694.03
2023-05-04T15:16:37.639Z,98705.06
2023-05-04T15:19:04.298Z,98702.19
2023-05-04T15:21:30.905Z,98698.47
2023-05-04T15:23:57.720Z,98694.56
2023-05-04T15:26:24.215Z,98689.84
2023-05-04T15:28:53.917Z,98693.22
2023-05-04T15:31:23.474Z,98684.22
2023-05-04T15:33:51.389Z,98687.56
2023-05-04T15:36:18.026Z,98695.78
2023-05-04T15:38:44.809Z,98686.66
2023-05-04T15:41:11.393Z,98688.56
2023-05-04T15:43:38.027Z,98689.09
2023-05-04T15:46:04.906Z,98698.47
2023-05-04T15:48:31.645Z,98694.06
2023-05-04T15:50:58.143Z,98689.69
2023-05-04T15:53:24.743Z,98689.91
2023-05-04T15:55:51.342Z,98695.13
2023-05-04T15:58:18.174Z,98689.59
2023-05-04T16:00:45.067Z,98689.84
2023-05-04T16:03:12.435Z,98696.16
2023-05-04T16:05:39.291Z,98688.16
2023-05-04T16:08:06.360Z,98691.94
2023-05-04T16:10:33.330Z,98690.00
2023-05-04T16:12:59.900Z,98685.09
2023-05-04T16:15:26.758Z,98689.09
2023-05-04T16:17:55.909Z,98692.78
2023-05-04T16:20:22.960Z,98684.06
2023-05-04T16:22:49.772Z,98685.75
2023-05-04T16:25:17.953Z,98682.16
2023-05-04T16:27:44.609Z,98688.72
2023-05-04T16:30:11.979Z,98675.34
2023-05-04T16:32:38.877Z,98675.06
2023-05-04T16:35:06.986Z,98677.84
2023-05-04T16:37:38.071Z,98675.16
2023-05-04T16:40:17.049Z,98673.88
2023-05-04T16:42:47.891Z,98668.69
2023-05-04T16:45:16.730Z,98661.69
2023-05-04T16:47:44.540Z,98664.59
2023-05-04T16:50:12.508Z,98660.09
2023-05-04T16:52:39.760Z,98662.28
2023-05-04T16:55:11.892Z,98663.66
2023-05-04T16:57:39.018Z,98653.88
2023-05-04T17:00:06.655Z,98646.81
2023-05-04T17:02:33.674Z,98643.81
2023-05-04T17:05:00.364Z,98648.47
2023-05-04T17:07:27.451Z,98653.66
2023-05-04T17:09:57.506Z,98645.25
2023-05-04T17:12:30.438Z,98649.03
2023-05-04T17:14:58.406Z,98645.78
2023-05-04T17:17:25.158Z,98644.69
2023-05-04T17:19:54.422Z,98647.72
2023-05-04T17:22:21.091Z,98647.69
2023-05-04T17:24:47.747Z,98646.91
2023-05-04T17:27:14.567Z,98646.66
2023-05-04T17:29:42.878Z,98651.03
2023-05-04T17:32:09.999Z,98648.28
2023-05-04T17:34:37.563Z,98649.66
2023-05-04T17:37:12.307Z,98655.34
2023-05-04T17:39:39.473Z,98648.31
2023-05-04T17:42:07.053Z,98654.00
2023-05-04T17:44:34.457Z,98648.31
2023-05-04T17:47:06.779Z,98642.06
2023-05-04T17:49:34.842Z,98640.16
2023-05-04T17:52:01.785Z,98651.56
2023-05-04T17:54:32.978Z,98655.38
2023-05-04T17:57:01.690Z,98653.22
2023-05-04T17:59:52.474Z,98657.00
2023-05-04T18:02:19.886Z,98656.16
2023-05-04T18:04:47.124Z,98654.25
2023-05-04T18:07:17.218Z,98648.81
2023-05-04T18:09:48.807Z,98653.66
2023-05-04T18:12:15.404Z,98658.81
2023-05-04T18:14:47.053Z,98658.56
2023-05-04T18:17:14.101Z,98656.78
2023-05-04T18:19:41.200Z,98657.31
2023-05-04T18:22:09.251Z,98659.50
2023-05-04T18:24:35.854Z,98662.91
2023-05-04T18:27:02.551Z,98664.19
2023-05-04T18:29:29.622Z,98666.44
2023-05-04T18:31:56.547Z,98673.91
2023-05-04T18:34:24.671Z,98669.03
2023-05-04T18:36:52.157Z,98682.03
2023-05-04T18:39:18.821Z,98668.78
2023-05-04T18:41:45.719Z,98673.63
2023-05-04T18:44:12.837Z,98675.16
2023-05-04T18:46:39.636Z,98674.66
2023-05-04T18:49:07.634Z,98675.91
2023-05-04T18:51:34.361Z,98683.38
2023-05-04T18:54:01.315Z,98690.31
2023-05-04T18:56:30.525Z,98692.53
2023-05-04T18:58:57.360Z,98693.41
2023-05-04T19:01:25.911Z,98698.66
2023-05-04T19:03:53.567Z,98700.97
2023-05-04T19:06:22.718Z,98707.19
2023-05-04T19:08:49.727Z,98699.19
2023-05-04T19:11:16.495Z,98703.34
2023-05-04T19:13:43.256Z,98707.34
2023-05-04T19:16:13.190Z,98706.75
2023-05-04T19:18:40.400Z,98713.81
2023-05-04T19:21:07.120Z,98713.13
2023-05-04T19:23:33.636Z,98711.66
2023-05-04T19:26:00.182Z,98716.38
2023-05-04T19:28:26.715Z,98723.34
2023-05-04T19:30:55.273Z,98727.88
2023-05-04T19:33:36.377Z,98723.13
2023-05-04T19:36:12.763Z,98733.06
2023-05-04T19:38:40.232Z,98737.97
2023-05-04T19:41:07.232Z,98735.34
2023-05-04T19:43:34.021Z,98744.34
2023-05-04T19:46:02.788Z,98744.28
2023-05-04T19:48:29.303Z,98746.81
2023-05-04T19:51:14.122Z,98745.47
2023-05-04T19:53:40.664Z,98753.41
2023-05-04T19:56:07.452Z,98753.75
2023-05-04T19:58:34.051Z,98765.25
2023-05-04T20:01:00.785Z,98777.13
2023-05-04T20:03:27.447Z,98785.84
2023-05-04T20:05:54.101Z,98784.91
2023-05-04T20:08:21.400Z,98798.78
2023-05-04T20:10:48.275Z,98798.31
2023-05-04T20:13:14.787Z,98811.09
2023-05-04T20:15:41.579Z,98810.72
2023-05-04T20:18:08.098Z,98817.88
2023-05-04T20:20:35.049Z,98814.25
2023-05-04T20:23:01.576Z,98824.31
2023-05-04T20:25:28.057Z,98817.53
2023-05-04T20:27:54.551Z,98825.72
2023-05-04T20:30:21.474Z,98821.81
2023-05-04T20:32:49.291Z,98833.78
2023-05-04T20:35:21.210Z,98830.91
2023-05-04T20:37:47.735Z,98829.97
2023-05-04T20:40:14.743Z,98841.09
2023-05-04T20:42:41.235Z,98838.59
2023-05-04T20:45:09.366Z,98838.25
2023-05-04T20:47:36.102Z,98844.34
2023-05-04T20:50:06.182Z,98860.59
2023-05-04T20:52:33.002Z,98888.03
2023-05-04T20:55:00.286Z,98909.53
2023-05-04T20:57:27.045Z,98927.03
2023-05-04T20:59:54.431Z,98936.53
2023-05-04T21:02:21.792Z,98951.91
2023-05-04T21:04:49.496Z,98947.41
2023-05-04T21:07:16.245Z,98963.41
2023-05-04T21:09:43.864Z,98963.50
2023-05-04T21:12:10.390Z,98965.00
2023-05-04T21:14:38.576Z,98966.09
2023-05-04T21:17:05.130Z,98969.00
2023-05-04T21:19:31.539Z,98976.91
2023-05-04T21:21:58.157Z,98990.69
2023-05-04T21:24:25.049Z,99004.16
2023-05-04T21:26:52.969Z,99007.91
2023-05-04T21:29:19.898Z,99007.59
2023-05-04T21:31:46.816Z,99018.53
2023-05-04T21:34:13.706Z,99014.44
2023-05-04T21:36:40.574Z,99022.69
2023-05-04T21:39:12.030Z,99028.94
2023-05-04T21:41:38.824Z,99030.19
2023-05-04T21:44:05.443Z,99029.16
2023-05-04T21:46:32.263Z,99012.03
2023-05-04T21:48:59.135Z,99017.00
2023-05-04T21:51:25.750Z,99018.66
2023-05-04T21:53:53.309Z,99025.66
2023-05-04T21:56:20.067Z,99026.13
2023-05-04T21:58:47.843Z,99023.88
2023-05-04T22:01:18.098Z,99040.44
2023-05-04T22:03:44.887Z,99066.91
2023-05-04T22:06:11.670Z,99067.34
2023-05-04T22:08:38.395Z,99076.22
2023-05-04T22:11:05.481Z,99083.50
2023-05-04T22:13:32.020Z,99090.69
2023-05-04T22:15:58.844Z,99106.78
2023-05-04T22:18:27.218Z,99103.06
2023-05-04T22:20:53.725Z,99125.16
2023-05-04T22:23:20.349Z,99135.50
2023-05-04T22:25:46.898Z,99142.72
2023-05-04T22:28:13.562Z,99151.78
2023-05-04T22:30:40.801Z,99160.06
2023-05-04T22:33:07.328Z,99172.84
2023-05-04T22:35:41.572Z,99180.25
2023-05-04T22:38:08.225Z,99192.59
2023-05-04T22:40:34.745Z,99209.09
2023-05-04T22:43:01.265Z,99224.34
2023-05-04T22:45:28.341Z,99231.56
2023-05-04T22:47:54.806Z,99227.03
2023-05-04T22:50:21.402Z,99231.38
2023-05-04T22:52:49.192Z,99228.06
2023-05-04T22:55:16.030Z,99233.84
2023-05-04T22:57:42.711Z,99227.84
2023-05-04T23:00:10.189Z,99232.59
2023-05-04T23:02:37.339Z,99235.88
2023-05-04T23:05:04.230Z,99245.13
2023-05-04T23:07:30.824Z,99247.75
2023-05-04T23:09:57.724Z,99257.84
2023-05-04T23:12:24.292Z,99262.13
2023-05-04T23:14:51.577Z,99254.31
2023-05-04T23:17:19.287Z,99259.25
2023-05-04T23:19:46.199Z,99266.00
2023-05-04T23:22:13.238Z,99272.94
2023-05-04T23:24:39.725Z,99281.56
2023-05-04T23:27:06.617Z,99292.09
2023-05-04T23:29:33.101Z,99295.78
2023-05-04T23:32:00.019Z,99303.84
2023-05-04T23:34:26.853Z,99301.13
2023-05-04T23:36:53.976Z,99313.09
2023-05-04T23:39:21.023Z,99315.53
2023-05-04T23:41:47.633Z,99325.53
2023-05-04T23:44:14.698Z,99340.50
2023-05-04T23:46:41.212Z,99335.41
2023-05-04T23:49:07.608Z,99340.78
2023-05-04T23:51:34.184Z,99351.66
2023-05-04T23:54:00.718Z,99353.91
2023-05-04T23:56:27.252Z,99361.13
2023-05-04T23:58:54.033Z,99366.66
